Rancho Cucamonga, California
Current Conditions -  °F | °C
As of 2:53 PM on Tuesday 27 Jan 2015 (Local Time) from KONT Reporting Station
Scattered Clouds Scattered Clouds  
Wind Chill: 70°   Ceiling: Unl
Heat Index: 70°   Visibility: 10mi
Dew Point: 47°   Wind: 6mph
Humidity: 44%   Direction: 220°SW
Pressure: 30.14"   Gusts: NA
Location:  34.1°N, 117.57°W
Report Text: KONT 272253Z 22005KT 10SM FEW070 SCT250 21/08 A3014 RMK AO2 SLP200 FU SW T02110083
Loading
Personal Weather Stations






























Interactive Weather Map New forecast layout! Learn more

10-Day Weather Forecast

Advertisements
Track Severe Weather on mobile